createdAt,value
2022-12-22T00:00:24.365Z,25.17
2022-12-22T00:03:15.202Z,30.33
2022-12-22T00:06:06.432Z,31.35
2022-12-22T00:09:05.062Z,24.50
2022-12-22T00:11:56.629Z,32.60
2022-12-22T00:14:47.522Z,34.85
2022-12-22T00:17:43.584Z,47.78
2022-12-22T00:20:36.325Z,38.17
2022-12-22T00:23:28.487Z,31.90
2022-12-22T00:26:21.062Z,39.35
2022-12-22T00:29:12.441Z,44.42
2022-12-22T00:32:03.936Z,41.67
2022-12-22T00:34:59.683Z,33.92
2022-12-22T00:37:52.464Z,35.20
2022-12-22T00:40:46.393Z,39.22
2022-12-22T00:43:38.649Z,39.88
2022-12-22T00:46:32.602Z,35.78
2022-12-22T00:49:23.927Z,42.95
2022-12-22T00:52:14.909Z,36.65
2022-12-22T00:55:06.045Z,41.92
2022-12-22T00:57:57.365Z,41.53
2022-12-22T01:00:49.724Z,41.25
2022-12-22T01:03:40.806Z,41.85
2022-12-22T01:06:32.080Z,42.22
2022-12-22T01:09:24.907Z,37.53
2022-12-22T01:12:15.941Z,38.90
2022-12-22T01:15:07.080Z,33.10
2022-12-22T01:17:59.234Z,34.45
2022-12-22T01:20:50.877Z,37.13
2022-12-22T01:23:41.894Z,39.13
2022-12-22T01:26:33.479Z,40.75
2022-12-22T01:29:24.611Z,38.55
2022-12-22T01:32:15.705Z,39.50
2022-12-22T01:35:07.790Z,37.20
2022-12-22T01:37:58.828Z,32.45
2022-12-22T01:40:49.435Z,36.92
2022-12-22T01:43:44.656Z,32.08
2022-12-22T01:46:41.188Z,35.88
2022-12-22T01:49:35.925Z,33.92
2022-12-22T01:52:29.625Z,29.17
2022-12-22T01:55:24.503Z,25.73
2022-12-22T01:58:15.659Z,27.73
2022-12-22T02:01:06.789Z,28.42
2022-12-22T02:03:57.833Z,29.83
2022-12-22T02:06:59.721Z,25.98
2022-12-22T02:09:59.258Z,27.73
2022-12-22T02:12:57.906Z,25.45
2022-12-22T02:15:54.967Z,29.40
2022-12-22T02:18:53.136Z,33.05
2022-12-22T02:21:48.518Z,28.88
2022-12-22T02:24:48.705Z,27.95
2022-12-22T02:27:42.383Z,26.90
2022-12-22T02:30:33.564Z,28.75
2022-12-22T02:33:25.198Z,22.17
2022-12-22T02:36:23.909Z,26.27
2022-12-22T02:39:22.953Z,23.27
2022-12-22T02:42:25.281Z,26.48
2022-12-22T02:45:26.596Z,27.83
2022-12-22T02:48:22.827Z,32.47
2022-12-22T02:51:23.592Z,26.80
2022-12-22T02:54:16.084Z,34.63
2022-12-22T02:57:07.855Z,29.10
2022-12-22T02:59:58.797Z,27.33
2022-12-22T03:02:51.480Z,31.95
2022-12-22T03:05:42.115Z,27.08
2022-12-22T03:08:32.904Z,25.67
2022-12-22T03:11:23.855Z,26.17
2022-12-22T03:14:14.549Z,26.67
2022-12-22T03:17:05.188Z,27.45
2022-12-22T03:19:57.144Z,24.50
2022-12-22T03:22:48.194Z,25.03
2022-12-22T03:25:39.253Z,31.08
2022-12-22T03:28:13.156Z,25.15
2022-12-22T03:30:46.802Z,26.83
2022-12-22T03:33:20.247Z,25.30
2022-12-22T03:35:55.467Z,26.05
2022-12-22T03:38:29.599Z,22.63
2022-12-22T03:41:03.216Z,25.17
2022-12-22T03:43:53.793Z,34.25
2022-12-22T03:46:33.132Z,30.95
2022-12-22T03:49:12.626Z,25.70
2022-12-22T03:51:49.269Z,53.65
2022-12-22T03:54:25.045Z,35.00
2022-12-22T03:56:58.568Z,41.83
2022-12-22T03:59:32.194Z,38.88
2022-12-22T04:02:05.799Z,34.10
2022-12-22T04:04:39.379Z,40.20
2022-12-22T04:07:14.295Z,46.05
2022-12-22T04:10:01.586Z,34.30
2022-12-22T04:12:52.412Z,29.95
2022-12-22T04:15:28.403Z,31.63
2022-12-22T04:18:02.113Z,27.17
2022-12-22T04:20:35.662Z,29.65
2022-12-22T04:23:10.793Z,23.05
2022-12-22T04:25:44.266Z,26.20
2022-12-22T04:28:18.366Z,36.25
2022-12-22T04:30:52.186Z,31.05
2022-12-22T04:33:26.037Z,34.97
2022-12-22T04:36:00.225Z,26.45
2022-12-22T04:38:35.537Z,31.77
2022-12-22T04:41:09.724Z,25.90
2022-12-22T04:43:43.253Z,28.40
2022-12-22T04:46:17.166Z,30.88
2022-12-22T04:48:54.689Z,29.95
2022-12-22T04:51:33.144Z,26.30
2022-12-22T04:54:08.041Z,30.45
2022-12-22T04:56:41.852Z,35.47
2022-12-22T04:59:15.321Z,30.92
2022-12-22T05:01:49.190Z,33.25
2022-12-22T05:04:23.935Z,26.15
2022-12-22T05:06:57.691Z,32.45
2022-12-22T05:09:32.985Z,35.17
2022-12-22T05:12:27.177Z,22.58
2022-12-22T05:15:00.994Z,27.85
2022-12-22T05:17:34.508Z,24.58
2022-12-22T05:20:09.804Z,23.17
2022-12-22T05:22:43.375Z,27.85
2022-12-22T05:25:20.098Z,28.38
2022-12-22T05:27:53.547Z,29.67
2022-12-22T05:30:27.355Z,29.05
2022-12-22T05:33:01.072Z,29.23
2022-12-22T05:35:34.571Z,30.90
2022-12-22T05:38:08.343Z,32.42
2022-12-22T05:40:43.278Z,30.05
2022-12-22T05:43:17.071Z,26.58
2022-12-22T05:45:50.926Z,32.03
2022-12-22T05:48:29.655Z,31.33
2022-12-22T05:51:08.971Z,31.83
2022-12-22T05:53:42.916Z,31.40
2022-12-22T05:56:17.976Z,25.45
2022-12-22T05:58:51.457Z,29.95
2022-12-22T06:01:25.302Z,31.80
2022-12-22T06:04:00.563Z,32.50
2022-12-22T06:06:34.526Z,35.15
2022-12-22T06:09:08.079Z,31.38
2022-12-22T06:11:43.206Z,37.55
2022-12-22T06:14:16.753Z,38.88
2022-12-22T06:16:50.266Z,32.28
2022-12-22T06:19:23.779Z,33.60
2022-12-22T06:21:57.292Z,32.80
2022-12-22T06:24:30.870Z,31.52
2022-12-22T06:27:05.901Z,31.20
2022-12-22T06:29:39.686Z,29.75
2022-12-22T06:32:13.414Z,28.63
2022-12-22T06:34:46.893Z,27.88
2022-12-22T06:37:20.560Z,27.10
2022-12-22T06:39:54.049Z,29.70
2022-12-22T06:42:46.113Z,34.92
2022-12-22T06:45:19.837Z,28.60
2022-12-22T06:47:53.362Z,32.97
2022-12-22T06:50:26.894Z,27.33
2022-12-22T06:53:00.419Z,32.35
2022-12-22T06:55:33.905Z,26.20
2022-12-22T06:58:09.095Z,29.27
2022-12-22T07:00:43.241Z,33.13
2022-12-22T07:03:17.117Z,33.05
2022-12-22T07:05:50.815Z,32.13
2022-12-22T07:08:24.359Z,31.83
2022-12-22T07:11:00.942Z,39.92
2022-12-22T07:13:36.560Z,35.10
2022-12-22T07:16:11.606Z,31.20
2022-12-22T07:18:45.266Z,36.08
2022-12-22T07:21:19.169Z,27.88
2022-12-22T07:23:52.642Z,32.25
2022-12-22T07:26:26.148Z,39.05
2022-12-22T07:29:19.796Z,37.78
2022-12-22T07:31:53.504Z,38.03
2022-12-22T07:34:46.033Z,27.77
2022-12-22T07:37:38.311Z,38.03
2022-12-22T07:40:12.696Z,35.60
2022-12-22T07:42:45.184Z,37.38
2022-12-22T07:45:39.456Z,34.65
2022-12-22T07:48:26.788Z,29.88
2022-12-22T07:51:04.288Z,31.23
2022-12-22T07:53:56.478Z,35.00
2022-12-22T07:56:29.961Z,30.27
2022-12-22T07:59:03.773Z,32.38
2022-12-22T08:01:40.099Z,35.05
2022-12-22T08:04:14.319Z,37.13
2022-12-22T08:06:47.859Z,33.40
2022-12-22T08:09:40.081Z,35.30
2022-12-22T08:12:14.760Z,26.63
2022-12-22T08:15:08.335Z,30.17
2022-12-22T08:17:43.287Z,31.58
2022-12-22T08:20:36.739Z,34.20
2022-12-22T08:23:10.209Z,30.40
2022-12-22T08:26:09.101Z,33.65
2022-12-22T08:29:05.801Z,34.75
2022-12-22T08:31:40.954Z,35.00
2022-12-22T08:34:17.655Z,32.33
2022-12-22T08:37:15.176Z,31.00
2022-12-22T08:40:11.147Z,35.15
2022-12-22T08:42:45.025Z,29.65
2022-12-22T08:45:18.813Z,32.42
2022-12-22T08:47:52.430Z,32.67
2022-12-22T08:50:27.558Z,27.05
2022-12-22T08:53:04.645Z,28.95
2022-12-22T08:55:38.184Z,33.65
2022-12-22T08:58:11.733Z,35.53
2022-12-22T09:00:45.841Z,34.17
2022-12-22T09:03:19.461Z,24.45
2022-12-22T09:06:01.210Z,32.92
2022-12-22T09:08:34.815Z,27.13
2022-12-22T09:11:08.538Z,24.58
2022-12-22T09:13:42.275Z,36.45
2022-12-22T09:16:15.855Z,29.80
2022-12-22T09:18:49.629Z,39.88
2022-12-22T09:21:25.971Z,29.67
2022-12-22T09:23:59.815Z,32.08
2022-12-22T09:26:33.917Z,27.55
2022-12-22T09:29:07.489Z,26.67
2022-12-22T09:31:41.809Z,32.00
2022-12-22T09:34:18.442Z,32.38
2022-12-22T09:36:53.587Z,31.02
2022-12-22T09:39:29.355Z,25.70
2022-12-22T09:42:03.288Z,23.95
2022-12-22T09:44:41.755Z,22.45
2022-12-22T09:47:22.202Z,26.88
2022-12-22T09:49:58.453Z,24.95
2022-12-22T09:52:50.663Z,25.75
2022-12-22T09:55:41.326Z,27.55
2022-12-22T09:58:25.952Z,27.25
2022-12-22T10:01:09.732Z,26.15
2022-12-22T10:03:47.647Z,23.30
2022-12-22T10:06:30.389Z,30.90
2022-12-22T10:12:08.269Z,26.63
2022-12-22T10:14:45.298Z,29.60
2022-12-22T10:17:21.432Z,30.15
2022-12-22T10:20:07.755Z,28.17
2022-12-22T10:22:49.385Z,28.00
2022-12-22T10:26:00.046Z,27.10
2022-12-22T10:28:29.052Z,23.92
2022-12-22T10:31:27.807Z,29.55
2022-12-22T10:34:13.060Z,32.80
2022-12-22T10:36:49.606Z,23.75
2022-12-22T10:39:24.896Z,27.48
2022-12-22T10:42:02.634Z,29.02
2022-12-22T10:44:38.749Z,33.28
2022-12-22T10:47:20.753Z,29.85
2022-12-22T10:52:33.157Z,36.20
2022-12-22T10:55:16.969Z,37.72
2022-12-22T10:57:52.463Z,31.17
2022-12-22T11:00:29.173Z,24.50
2022-12-22T11:03:04.634Z,28.63
2022-12-22T11:05:38.724Z,30.75
2022-12-22T11:08:18.795Z,21.70
2022-12-22T11:10:57.639Z,24.40
2022-12-22T11:13:51.634Z,24.40
2022-12-22T11:16:30.742Z,25.13
2022-12-22T11:19:35.848Z,24.50
2022-12-22T11:22:20.121Z,26.50
2022-12-22T11:25:29.276Z,28.48
2022-12-22T11:28:26.715Z,28.85
2022-12-22T11:31:23.794Z,27.80
2022-12-22T11:34:08.250Z,22.85
2022-12-22T11:36:59.355Z,22.27
2022-12-22T11:39:43.776Z,24.00
2022-12-22T11:42:40.735Z,22.13
2022-12-22T11:45:43.575Z,25.65
2022-12-22T11:48:46.577Z,25.60
2022-12-22T11:51:34.191Z,24.25
2022-12-22T11:54:35.416Z,29.50
2022-12-22T11:57:20.384Z,24.02
2022-12-22T12:00:02.792Z,21.73
2022-12-22T12:03:37.731Z,25.98
2022-12-22T12:06:36.816Z,26.08
2022-12-22T12:09:27.779Z,24.90
2022-12-22T12:12:11.901Z,22.92
2022-12-22T12:14:59.972Z,25.95
2022-12-22T12:17:44.926Z,25.63
2022-12-22T12:20:28.009Z,29.65
2022-12-22T12:23:19.746Z,33.22
2022-12-22T12:26:01.890Z,27.55
2022-12-22T12:28:49.268Z,31.40
2022-12-22T12:31:29.329Z,28.60
2022-12-22T12:34:04.362Z,26.20
2022-12-22T12:36:44.777Z,27.63
2022-12-22T12:39:26.271Z,28.70
2022-12-22T12:42:13.734Z,27.45
2022-12-22T12:44:48.380Z,31.52
2022-12-22T12:47:28.527Z,35.08
2022-12-22T12:50:33.932Z,30.48
2022-12-22T12:53:09.960Z,25.30
2022-12-22T12:56:08.425Z,25.77
2022-12-22T12:58:51.730Z,25.08
2022-12-22T13:01:59.649Z,30.08
2022-12-22T13:05:11.807Z,22.77
2022-12-22T13:08:15.675Z,29.77
2022-12-22T13:11:11.608Z,25.23
2022-12-22T13:13:52.231Z,26.80
2022-12-22T13:16:35.146Z,28.05
2022-12-22T13:19:27.664Z,26.42
2022-12-22T13:24:48.945Z,28.55
2022-12-22T13:27:24.344Z,30.75
2022-12-22T13:29:59.441Z,35.65
2022-12-22T13:32:37.110Z,37.70
2022-12-22T13:35:38.657Z,32.38
2022-12-22T13:38:29.372Z,64.25
2022-12-22T13:41:06.391Z,36.35
2022-12-22T13:43:40.818Z,33.47
2022-12-22T13:46:15.931Z,35.88
2022-12-22T13:48:51.296Z,41.38
2022-12-22T13:51:28.420Z,36.90
2022-12-22T13:54:09.564Z,81.40
2022-12-22T13:56:47.735Z,151.68
2022-12-22T13:59:29.629Z,76.60
2022-12-22T14:02:15.563Z,33.37
2022-12-22T14:05:06.551Z,31.45
2022-12-22T14:07:40.377Z,30.25
2022-12-22T14:10:13.999Z,34.13
2022-12-22T14:12:48.701Z,34.53
2022-12-22T14:15:22.689Z,44.92
2022-12-22T14:17:57.758Z,37.25
2022-12-22T14:20:35.726Z,34.92
2022-12-22T14:23:14.412Z,40.20
2022-12-22T14:25:49.429Z,40.75
2022-12-22T14:28:27.051Z,42.38
2022-12-22T14:31:02.289Z,56.75
2022-12-22T14:33:37.308Z,155.60
2022-12-22T14:36:23.177Z,81.00
2022-12-22T14:39:02.347Z,81.75
2022-12-22T14:41:51.972Z,60.00
2022-12-22T14:44:29.332Z,51.40
2022-12-22T14:47:15.537Z,61.53
2022-12-22T14:49:54.007Z,82.43
2022-12-22T14:52:39.590Z,68.72
2022-12-22T14:55:26.632Z,59.42
2022-12-22T14:58:02.536Z,65.35
2022-12-22T15:00:37.953Z,63.42
2022-12-22T15:03:32.226Z,61.53
2022-12-22T15:06:25.894Z,63.50
2022-12-22T15:09:47.330Z,81.38
2022-12-22T15:12:18.948Z,217.77
2022-12-22T15:14:52.506Z,152.65
2022-12-22T15:17:26.724Z,103.90
2022-12-22T15:20:01.157Z,79.65
2022-12-22T15:22:36.183Z,64.50
2022-12-22T15:25:14.407Z,80.25
2022-12-22T15:27:48.284Z,50.22
2022-12-22T15:30:28.640Z,54.95
2022-12-22T15:33:02.576Z,73.60
2022-12-22T15:35:36.457Z,80.22
2022-12-22T15:38:15.010Z,73.90
2022-12-22T15:40:49.364Z,64.05
2022-12-22T15:43:55.955Z,72.97
2022-12-22T15:46:19.017Z,72.82
2022-12-22T15:48:52.770Z,69.60
2022-12-22T15:51:29.348Z,58.22
2022-12-22T15:54:05.265Z,68.45
2022-12-22T15:56:38.983Z,73.72
2022-12-22T15:59:19.593Z,64.55
2022-12-22T16:02:00.283Z,77.28
2022-12-22T16:04:34.573Z,76.25
2022-12-22T16:07:10.512Z,74.63
2022-12-22T16:09:48.669Z,79.47
2022-12-22T16:12:22.318Z,77.13
2022-12-22T16:14:58.905Z,76.90
2022-12-22T16:17:33.203Z,91.50
2022-12-22T16:20:08.222Z,86.82
2022-12-22T16:22:42.660Z,74.72
2022-12-22T16:25:20.091Z,109.28
2022-12-22T16:27:53.941Z,88.30
2022-12-22T16:30:30.338Z,96.65
2022-12-22T16:33:03.910Z,112.75
2022-12-22T16:35:37.662Z,130.55
2022-12-22T16:38:17.915Z,122.07
2022-12-22T16:40:55.053Z,109.00
2022-12-22T16:43:50.487Z,130.80
2022-12-22T16:46:24.945Z,137.20
2022-12-22T16:49:02.153Z,110.20
2022-12-22T16:51:38.941Z,105.00
2022-12-22T16:54:15.616Z,90.45
2022-12-22T16:56:51.949Z,96.72
2022-12-22T16:59:25.784Z,105.05
2022-12-22T17:01:59.839Z,86.38
2022-12-22T17:04:33.991Z,71.00
2022-12-22T17:07:08.267Z,60.63
2022-12-22T17:09:48.662Z,72.40
2022-12-22T17:12:28.673Z,68.70
2022-12-22T17:15:02.921Z,65.38
2022-12-22T17:17:42.151Z,67.93
2022-12-22T17:20:17.214Z,83.63
2022-12-22T17:22:56.108Z,99.03
2022-12-22T17:25:31.652Z,91.57
2022-12-22T17:28:06.721Z,70.22
2022-12-22T17:30:41.171Z,79.15
2022-12-22T17:33:16.795Z,78.93
2022-12-22T17:35:51.351Z,71.55
2022-12-22T17:38:27.130Z,62.08
2022-12-22T17:41:03.211Z,77.68
2022-12-22T17:43:38.171Z,70.65
2022-12-22T17:46:16.521Z,70.72
2022-12-22T17:48:50.803Z,70.78
2022-12-22T17:51:26.425Z,87.10
2022-12-22T17:54:00.525Z,91.43
2022-12-22T17:56:34.351Z,81.18
2022-12-22T17:59:13.018Z,84.32
2022-12-22T18:01:46.762Z,82.15
2022-12-22T18:04:20.392Z,63.95
2022-12-22T18:06:54.033Z,71.35
2022-12-22T18:09:27.862Z,84.60
2022-12-22T18:12:01.373Z,86.80
2022-12-22T18:14:36.341Z,103.80
2022-12-22T18:17:28.602Z,90.88
2022-12-22T18:20:07.783Z,81.72
2022-12-22T18:22:41.465Z,83.45
2022-12-22T18:25:20.951Z,100.20
2022-12-22T18:27:54.478Z,93.88
2022-12-22T18:30:32.298Z,86.93
2022-12-22T18:33:05.977Z,120.75
2022-12-22T18:35:40.569Z,132.77
2022-12-22T18:38:26.463Z,125.47
2022-12-22T18:41:03.247Z,121.22
2022-12-22T18:43:36.892Z,100.53
2022-12-22T18:46:12.659Z,77.97
2022-12-22T18:48:47.314Z,76.15
2022-12-22T18:51:23.101Z,63.90
2022-12-22T18:53:57.240Z,66.65
2022-12-22T18:56:30.823Z,80.55
2022-12-22T18:59:07.235Z,99.78
2022-12-22T19:01:42.473Z,96.72
2022-12-22T19:04:16.218Z,90.22
2022-12-22T19:06:49.820Z,75.32
2022-12-22T19:09:27.004Z,83.93
2022-12-22T19:12:00.640Z,83.55
2022-12-22T19:14:34.313Z,88.05
2022-12-22T19:17:15.567Z,73.22
2022-12-22T19:19:49.632Z,76.07
2022-12-22T19:22:23.231Z,69.97
2022-12-22T19:24:59.001Z,76.88
2022-12-22T19:27:33.124Z,85.13
2022-12-22T19:30:07.935Z,86.90
2022-12-22T19:32:47.878Z,88.63
2022-12-22T19:35:22.968Z,80.18
2022-12-22T19:37:56.892Z,91.43
2022-12-22T19:40:34.006Z,98.68
2022-12-22T19:43:09.791Z,109.65
2022-12-22T19:45:43.493Z,105.25
2022-12-22T19:48:20.776Z,112.88
2022-12-22T19:50:55.235Z,105.78
2022-12-22T19:53:28.937Z,99.18
2022-12-22T19:56:04.551Z,64.90
2022-12-22T19:58:41.157Z,81.30
2022-12-22T20:01:56.802Z,92.35
2022-12-22T20:04:32.089Z,92.80
2022-12-22T20:07:10.738Z,90.20
2022-12-22T20:09:44.347Z,90.07
2022-12-22T20:12:26.243Z,113.75
2022-12-22T20:15:00.160Z,99.47
2022-12-22T20:17:33.742Z,96.57
2022-12-22T20:20:15.398Z,83.43
2022-12-22T20:22:52.735Z,96.25
2022-12-22T20:25:28.783Z,96.93
2022-12-22T20:28:02.474Z,103.03
2022-12-22T20:30:36.105Z,90.90
2022-12-22T20:33:09.923Z,82.03
2022-12-22T20:35:45.804Z,74.85
2022-12-22T20:38:21.504Z,72.18
2022-12-22T20:40:55.152Z,68.68
2022-12-22T20:43:31.365Z,52.17
2022-12-22T20:46:12.809Z,55.20
2022-12-22T20:48:49.409Z,55.85
2022-12-22T20:51:27.047Z,61.15
2022-12-22T20:54:01.059Z,60.42
2022-12-22T20:56:36.603Z,61.28
2022-12-22T20:59:15.140Z,57.78
2022-12-22T21:01:50.182Z,76.45
2022-12-22T21:04:23.882Z,65.60
2022-12-22T21:06:58.935Z,67.70
2022-12-22T21:09:32.545Z,96.72
2022-12-22T21:12:06.486Z,99.55
2022-12-22T21:14:40.077Z,100.55
2022-12-22T21:17:17.377Z,86.10
2022-12-22T21:19:51.064Z,64.28
2022-12-22T21:22:26.188Z,61.78
2022-12-22T21:24:59.736Z,72.15
2022-12-22T21:27:33.411Z,59.55
2022-12-22T21:30:17.276Z,55.47
2022-12-22T21:32:51.771Z,77.25
2022-12-22T21:35:28.845Z,82.38
2022-12-22T21:38:04.244Z,75.00
2022-12-22T21:40:37.936Z,75.53
2022-12-22T21:43:12.948Z,73.38
2022-12-22T21:45:46.790Z,91.60
2022-12-22T21:48:22.023Z,89.05
2022-12-22T21:50:56.888Z,78.07
2022-12-22T21:53:31.905Z,62.97
2022-12-22T21:56:13.864Z,55.65
2022-12-22T21:58:47.400Z,64.00
2022-12-22T22:01:20.947Z,57.20
2022-12-22T22:03:54.488Z,52.63
2022-12-22T22:06:28.041Z,50.88
2022-12-22T22:09:04.795Z,50.80
2022-12-22T22:11:59.046Z,72.30
2022-12-22T22:14:32.783Z,59.47
2022-12-22T22:17:06.301Z,59.22
2022-12-22T22:19:39.828Z,58.75
2022-12-22T22:22:14.129Z,59.58
2022-12-22T22:24:49.118Z,66.13
2022-12-22T22:27:22.729Z,69.47
2022-12-22T22:29:56.217Z,69.88
2022-12-22T22:32:29.801Z,59.42
2022-12-22T22:35:03.351Z,55.90
2022-12-22T22:37:37.614Z,59.25
2022-12-22T22:40:15.424Z,66.47
2022-12-22T22:42:49.504Z,58.03
2022-12-22T22:45:24.520Z,50.47
2022-12-22T22:47:58.521Z,56.60
2022-12-22T22:50:32.076Z,50.28
2022-12-22T22:53:05.557Z,54.53
2022-12-22T22:55:40.679Z,66.53
2022-12-22T22:58:14.231Z,59.72
2022-12-22T23:00:47.792Z,57.55
2022-12-22T23:03:21.399Z,67.70
2022-12-22T23:06:06.110Z,63.88
2022-12-22T23:08:39.930Z,77.53
2022-12-22T23:11:16.326Z,68.53
2022-12-22T23:13:50.064Z,78.13
2022-12-22T23:16:24.511Z,65.57
2022-12-22T23:18:58.129Z,64.45
2022-12-22T23:21:31.648Z,57.90
2022-12-22T23:24:05.540Z,62.92
2022-12-22T23:26:40.693Z,69.43
2022-12-22T23:29:14.257Z,57.10
2022-12-22T23:31:47.876Z,60.45
2022-12-22T23:34:21.452Z,56.78
2022-12-22T23:36:55.348Z,49.80
2022-12-22T23:39:29.152Z,46.95
2022-12-22T23:42:04.371Z,56.28
2022-12-22T23:44:37.963Z,48.15
2022-12-22T23:47:11.642Z,59.08
2022-12-22T23:49:45.260Z,57.05
2022-12-22T23:52:18.835Z,61.53
2022-12-22T23:54:52.400Z,61.53
2022-12-22T23:57:27.301Z,61.60
